createdAt,value
2023-01-01T00:02:17.457Z,27.22
2023-01-01T00:04:48.785Z,27.10
2023-01-01T00:07:19.467Z,27.14
2023-01-01T00:10:07.904Z,27.13
2023-01-01T00:12:38.429Z,27.04
2023-01-01T00:15:13.288Z,26.94
2023-01-01T00:17:49.206Z,26.76
2023-01-01T00:20:29.982Z,26.73
2023-01-01T00:23:04.216Z,26.62
2023-01-01T00:25:57.369Z,26.63
2023-01-01T00:28:38.838Z,26.42
2023-01-01T00:31:20.942Z,26.49
2023-01-01T00:34:06.014Z,26.40
2023-01-01T00:36:38.661Z,26.40
2023-01-01T00:39:12.060Z,26.46
2023-01-01T00:41:48.403Z,26.44
2023-01-01T00:44:21.529Z,26.33
2023-01-01T00:46:53.462Z,26.17
2023-01-01T00:49:26.900Z,26.13
2023-01-01T00:52:01.293Z,26.15
2023-01-01T00:54:32.669Z,25.98
2023-01-01T00:57:03.164Z,25.67
2023-01-01T00:59:45.292Z,25.37
2023-01-01T01:02:22.855Z,25.13
2023-01-01T01:04:59.157Z,25.16
2023-01-01T01:07:41.540Z,25.09
2023-01-01T01:10:18.981Z,24.92
2023-01-01T01:12:52.455Z,24.94
2023-01-01T01:15:22.650Z,24.87
2023-01-01T01:18:06.888Z,24.83
2023-01-01T01:20:39.698Z,24.75
2023-01-01T01:23:10.261Z,24.81
2023-01-01T01:25:43.229Z,24.76
2023-01-01T01:28:27.149Z,24.77
2023-01-01T01:31:11.820Z,24.70
2023-01-01T01:33:57.643Z,24.69
2023-01-01T01:36:28.399Z,24.65
2023-01-01T01:39:05.329Z,24.51
2023-01-01T01:41:43.944Z,24.27
2023-01-01T01:44:54.453Z,24.21
2023-01-01T01:47:27.443Z,24.10
2023-01-01T01:50:15.960Z,23.99
2023-01-01T01:53:48.790Z,23.93
2023-01-01T01:56:33.724Z,23.82
2023-01-01T01:59:07.429Z,23.72
2023-01-01T02:01:38.603Z,23.81
2023-01-01T02:04:14.055Z,23.70
2023-01-01T02:06:50.360Z,23.73
2023-01-01T02:09:20.624Z,23.79
2023-01-01T02:12:04.880Z,23.55
2023-01-01T02:14:37.959Z,23.48
2023-01-01T02:17:23.003Z,23.60
2023-01-01T02:19:59.261Z,23.68
2023-01-01T02:23:03.872Z,23.54
2023-01-01T02:26:14.950Z,23.53
2023-01-01T02:29:04.632Z,23.52
2023-01-01T02:31:50.338Z,23.68
2023-01-01T02:34:29.007Z,23.42
2023-01-01T02:37:11.615Z,23.37
2023-01-01T02:39:55.978Z,23.22
2023-01-01T02:42:29.498Z,23.03
2023-01-01T02:45:08.857Z,23.02
2023-01-01T02:47:44.971Z,22.90
2023-01-01T02:50:31.033Z,22.88
2023-01-01T02:53:14.245Z,23.12
2023-01-01T02:56:02.092Z,22.88
2023-01-01T02:59:02.238Z,22.97
2023-01-01T03:01:50.611Z,22.97
2023-01-01T03:04:35.441Z,22.99
2023-01-01T03:07:36.231Z,22.89
2023-01-01T03:10:30.028Z,22.95
2023-01-01T03:13:19.799Z,23.03
2023-01-01T03:16:07.647Z,22.92
2023-01-01T03:18:51.550Z,22.89
2023-01-01T03:21:27.383Z,22.97
2023-01-01T03:24:09.356Z,23.02
2023-01-01T03:26:54.386Z,22.92
2023-01-01T03:29:30.482Z,22.87
2023-01-01T03:32:07.175Z,22.66
2023-01-01T03:34:45.251Z,22.38
2023-01-01T03:37:25.087Z,22.21
2023-01-01T03:40:06.976Z,22.50
2023-01-01T03:42:58.972Z,22.53
2023-01-01T03:45:41.569Z,22.47
2023-01-01T03:48:12.958Z,22.53
2023-01-01T03:51:01.885Z,22.48
2023-01-01T03:53:49.915Z,22.72
2023-01-01T03:56:22.279Z,22.74
2023-01-01T03:59:20.220Z,22.68
2023-01-01T04:02:03.911Z,22.65
2023-01-01T04:04:41.349Z,22.64
2023-01-01T04:07:15.502Z,22.71
2023-01-01T04:09:53.780Z,22.97
2023-01-01T04:12:24.708Z,22.90
2023-01-01T04:14:57.455Z,22.90
2023-01-01T04:17:28.081Z,22.89
2023-01-01T04:20:06.371Z,22.58
2023-01-01T04:22:40.111Z,22.47
2023-01-01T04:25:14.712Z,22.21
2023-01-01T04:27:54.787Z,22.59
2023-01-01T04:30:28.219Z,22.15
2023-01-01T04:33:08.818Z,22.10
2023-01-01T04:35:44.957Z,22.10
2023-01-01T04:38:21.066Z,22.34
2023-01-01T04:41:11.624Z,22.37
2023-01-01T04:43:44.577Z,22.37
2023-01-01T04:46:24.017Z,22.28
2023-01-01T04:48:54.273Z,22.14
2023-01-01T04:51:27.743Z,22.00
2023-01-01T04:54:00.489Z,22.02
2023-01-01T04:56:37.132Z,21.87
2023-01-01T04:59:07.213Z,22.00
2023-01-01T05:01:40.870Z,22.03
2023-01-01T05:04:16.711Z,21.91
2023-01-01T05:06:49.642Z,21.93
2023-01-01T05:09:22.297Z,21.77
2023-01-01T05:11:52.761Z,21.90
2023-01-01T05:14:25.332Z,21.58
2023-01-01T05:16:59.364Z,21.66
2023-01-01T05:19:29.513Z,21.73
2023-01-01T05:22:05.374Z,21.47
2023-01-01T05:24:40.818Z,21.33
2023-01-01T05:27:13.477Z,21.20
2023-01-01T05:29:48.121Z,21.36
2023-01-01T05:32:21.362Z,21.19
2023-01-01T05:34:55.595Z,21.23
2023-01-01T05:37:35.194Z,21.23
2023-01-01T05:40:11.257Z,20.97
2023-01-01T05:42:47.488Z,20.96
2023-01-01T05:45:21.682Z,20.93
2023-01-01T05:48:02.716Z,20.79
2023-01-01T05:50:44.566Z,20.53
2023-01-01T05:53:25.926Z,20.46
2023-01-01T05:55:55.930Z,20.40
2023-01-01T05:58:31.491Z,20.44
2023-01-01T06:01:17.140Z,20.51
2023-01-01T06:03:55.715Z,20.22
2023-01-01T06:06:34.832Z,20.31
2023-01-01T06:09:08.671Z,20.23
2023-01-01T06:11:42.705Z,20.27
2023-01-01T06:14:14.997Z,20.31
2023-01-01T06:16:53.288Z,20.29
2023-01-01T06:19:24.248Z,20.21
2023-01-01T06:22:03.902Z,20.30
2023-01-01T06:24:45.480Z,20.22
2023-01-01T06:27:20.845Z,20.34
2023-01-01T06:29:51.337Z,20.28
2023-01-01T06:32:26.803Z,20.26
2023-01-01T06:35:11.958Z,20.28
2023-01-01T06:37:44.631Z,20.32
2023-01-01T06:40:18.056Z,20.54
2023-01-01T06:42:51.838Z,20.44
2023-01-01T06:45:24.902Z,20.37
2023-01-01T06:47:54.888Z,20.29
2023-01-01T06:50:24.876Z,20.34
2023-01-01T06:52:58.238Z,20.26
2023-01-01T06:55:31.613Z,20.27
2023-01-01T06:58:13.762Z,20.29
2023-01-01T07:00:44.699Z,20.28
2023-01-01T07:03:15.958Z,20.28
2023-01-01T07:05:51.962Z,20.38
2023-01-01T07:08:27.676Z,20.45
2023-01-01T07:11:06.572Z,20.31
2023-01-01T07:13:42.450Z,20.52
2023-01-01T07:16:18.606Z,20.71
2023-01-01T07:18:57.546Z,20.54
2023-01-01T07:21:44.566Z,20.37
2023-01-01T07:24:18.413Z,20.34
2023-01-01T07:26:51.784Z,20.26
2023-01-01T07:29:27.318Z,20.39
2023-01-01T07:32:00.784Z,20.47
2023-01-01T07:34:57.313Z,20.58
2023-01-01T07:37:36.831Z,20.65
2023-01-01T07:40:12.284Z,20.61
2023-01-01T07:42:51.050Z,20.35
2023-01-01T07:45:21.647Z,20.50
2023-01-01T07:47:55.532Z,20.27
2023-01-01T07:50:31.027Z,20.56
2023-01-01T07:53:07.176Z,20.55
2023-01-01T07:55:37.423Z,20.59
2023-01-01T07:58:10.942Z,20.66
2023-01-01T08:00:48.854Z,20.65
2023-01-01T08:03:22.341Z,20.46
2023-01-01T08:05:54.288Z,20.70
2023-01-01T08:08:27.859Z,20.78
2023-01-01T08:11:04.227Z,20.75
2023-01-01T08:13:46.071Z,20.83
2023-01-01T08:16:28.735Z,20.83
2023-01-01T08:19:02.336Z,20.53
2023-01-01T08:21:41.400Z,20.77
2023-01-01T08:24:14.734Z,20.66
2023-01-01T08:26:44.739Z,20.78
2023-01-01T08:29:23.815Z,20.52
2023-01-01T08:31:56.429Z,20.31
2023-01-01T08:34:29.905Z,20.27
2023-01-01T08:37:05.389Z,20.27
2023-01-01T08:39:38.189Z,20.29
2023-01-01T08:42:12.340Z,20.28
2023-01-01T08:44:43.087Z,20.75
2023-01-01T08:47:36.223Z,20.78
2023-01-01T08:50:12.616Z,20.61
2023-01-01T08:52:42.653Z,20.86
2023-01-01T08:55:13.107Z,21.13
2023-01-01T08:57:48.925Z,21.49
2023-01-01T09:00:26.930Z,21.80
2023-01-01T09:03:04.580Z,22.16
2023-01-01T09:05:37.383Z,22.41
2023-01-01T09:08:08.883Z,22.40
2023-01-01T09:10:43.581Z,22.67
2023-01-01T09:13:15.623Z,22.90
2023-01-01T09:15:51.159Z,23.34
2023-01-01T09:18:21.564Z,23.67
2023-01-01T09:20:54.898Z,23.99
2023-01-01T09:23:31.938Z,24.21
2023-01-01T09:26:08.329Z,24.37
2023-01-01T09:28:41.887Z,24.69
2023-01-01T09:31:21.319Z,24.80
2023-01-01T09:33:51.443Z,25.16
2023-01-01T09:36:31.985Z,25.41
2023-01-01T09:39:05.015Z,25.63
2023-01-01T09:42:01.118Z,25.91
2023-01-01T09:45:02.770Z,26.18
2023-01-01T09:48:08.344Z,26.22
2023-01-01T09:50:47.934Z,26.47
2023-01-01T09:53:52.892Z,27.05
2023-01-01T09:56:30.793Z,27.47
2023-01-01T09:59:07.091Z,27.56
2023-01-01T10:01:57.910Z,27.24
2023-01-01T10:04:50.210Z,27.35
2023-01-01T10:07:38.781Z,27.37
2023-01-01T10:10:39.025Z,27.47
2023-01-01T10:13:30.686Z,28.34
2023-01-01T10:16:26.419Z,28.72
2023-01-01T10:19:31.212Z,29.10
2023-01-01T10:22:17.293Z,28.78
2023-01-01T10:25:05.487Z,29.19
2023-01-01T10:27:51.341Z,29.69
2023-01-01T10:30:27.272Z,29.67
2023-01-01T10:32:58.944Z,30.30
2023-01-01T10:35:43.630Z,30.72
2023-01-01T10:38:29.699Z,30.88
2023-01-01T10:41:19.201Z,31.24
2023-01-01T10:43:50.683Z,31.23
2023-01-01T10:46:31.581Z,31.71
2023-01-01T10:49:12.026Z,32.36
2023-01-01T10:51:52.250Z,32.24
2023-01-01T10:54:41.027Z,32.38
2023-01-01T10:57:41.544Z,32.70
2023-01-01T11:00:34.682Z,33.05
2023-01-01T11:03:26.410Z,33.41
2023-01-01T11:06:11.250Z,33.37
2023-01-01T11:08:50.815Z,33.18
2023-01-01T11:11:44.312Z,33.40
2023-01-01T11:14:44.559Z,33.96
2023-01-01T11:17:28.707Z,34.07
2023-01-01T11:20:07.032Z,34.06
2023-01-01T11:22:48.316Z,34.70
2023-01-01T11:25:27.498Z,35.09
2023-01-01T11:28:23.012Z,35.43
2023-01-01T11:31:21.284Z,35.54
2023-01-01T11:33:59.146Z,35.79
2023-01-01T11:36:41.525Z,36.04
2023-01-01T11:39:33.123Z,36.09
2023-01-01T11:42:09.492Z,36.02
2023-01-01T11:44:42.361Z,36.36
2023-01-01T11:47:33.308Z,36.85
2023-01-01T11:50:33.608Z,37.12
2023-01-01T11:53:33.135Z,36.83
2023-01-01T11:56:20.189Z,37.40
2023-01-01T11:59:01.062Z,37.66
2023-01-01T12:01:50.927Z,37.89
2023-01-01T12:04:43.031Z,38.70
2023-01-01T12:07:40.114Z,38.42
2023-01-01T12:11:02.126Z,38.86
2023-01-01T12:13:49.290Z,39.41
2023-01-01T12:16:36.774Z,39.28
2023-01-01T12:19:28.869Z,39.59
2023-01-01T12:22:14.942Z,40.06
2023-01-01T12:24:50.490Z,40.41
2023-01-01T12:27:44.177Z,40.67
2023-01-01T12:30:24.645Z,41.26
2023-01-01T12:33:07.915Z,41.16
2023-01-01T12:36:15.146Z,40.48
2023-01-01T12:39:32.645Z,40.60
2023-01-01T12:42:28.679Z,40.26
2023-01-01T12:45:22.264Z,39.58
2023-01-01T12:48:41.494Z,38.99
2023-01-01T12:52:00.081Z,39.54
2023-01-01T12:55:21.547Z,38.97
2023-01-01T12:58:03.195Z,39.12
2023-01-01T13:00:41.090Z,39.39
2023-01-01T13:03:22.753Z,39.74
2023-01-01T13:05:59.260Z,39.86
2023-01-01T13:08:29.744Z,40.14
2023-01-01T13:11:02.321Z,40.37
2023-01-01T13:13:35.683Z,40.57
2023-01-01T13:16:06.224Z,40.74
2023-01-01T13:18:41.336Z,39.88
2023-01-01T13:21:32.206Z,39.97
2023-01-01T13:24:23.175Z,40.55
2023-01-01T13:26:57.171Z,41.06
2023-01-01T13:29:32.242Z,41.79
2023-01-01T13:32:09.681Z,41.62
2023-01-01T13:35:11.754Z,41.21
2023-01-01T13:37:46.542Z,40.97
2023-01-01T13:40:16.533Z,41.15
2023-01-01T13:43:10.625Z,41.31
2023-01-01T13:49:17.217Z,41.07
2023-01-01T13:52:12.467Z,41.96
2023-01-01T13:54:59.164Z,41.59
2023-01-01T13:58:00.545Z,41.15
2023-01-01T14:01:11.079Z,41.41
2023-01-01T14:03:55.920Z,42.18
2023-01-01T14:06:33.084Z,41.00
2023-01-01T14:09:09.215Z,41.34
2023-01-01T14:11:52.100Z,42.00
2023-01-01T14:14:32.302Z,42.71
2023-01-01T14:17:08.859Z,42.71
2023-01-01T14:19:44.767Z,42.50
2023-01-01T14:22:23.807Z,42.72
2023-01-01T14:25:01.668Z,42.94
2023-01-01T14:27:39.694Z,42.48
2023-01-01T14:30:18.008Z,42.71
2023-01-01T14:32:58.357Z,43.09
2023-01-01T14:35:31.520Z,42.90
2023-01-01T14:38:32.715Z,42.79
2023-01-01T14:41:39.605Z,42.36
2023-01-01T14:44:18.817Z,42.63
2023-01-01T14:46:56.241Z,42.83
2023-01-01T14:49:35.898Z,42.46
2023-01-01T14:52:25.964Z,42.79
2023-01-01T14:55:02.876Z,42.38
2023-01-01T14:57:39.405Z,42.92
2023-01-01T15:00:31.615Z,42.52
2023-01-01T15:03:33.786Z,42.61
2023-01-01T15:06:05.132Z,42.02
2023-01-01T15:08:41.018Z,42.52
2023-01-01T15:11:17.040Z,42.19
2023-01-01T15:14:01.551Z,42.34
2023-01-01T15:16:40.342Z,43.39
2023-01-01T15:19:20.223Z,43.92
2023-01-01T15:21:50.915Z,42.72
2023-01-01T15:24:27.431Z,41.47
2023-01-01T15:27:06.347Z,42.69
2023-01-01T15:29:54.347Z,43.28
2023-01-01T15:32:27.556Z,43.86
2023-01-01T15:35:13.786Z,44.34
2023-01-01T15:37:44.181Z,44.26
2023-01-01T15:40:41.773Z,44.52
2023-01-01T15:43:17.822Z,44.12
2023-01-01T15:46:13.085Z,43.76
2023-01-01T15:49:00.461Z,44.50
2023-01-01T15:51:33.389Z,43.86
2023-01-01T15:54:07.912Z,43.89
2023-01-01T15:56:45.458Z,44.08
2023-01-01T15:59:30.922Z,44.25
2023-01-01T16:02:30.808Z,44.71
2023-01-01T16:05:01.656Z,43.54
2023-01-01T16:07:32.896Z,44.09
2023-01-01T16:10:05.438Z,45.56
2023-01-01T16:12:38.062Z,45.47
2023-01-01T16:15:13.251Z,44.80
2023-01-01T16:17:44.496Z,44.69
2023-01-01T16:20:20.088Z,46.13
2023-01-01T16:22:53.880Z,46.38
2023-01-01T16:25:33.431Z,44.80
2023-01-01T16:28:05.305Z,43.92
2023-01-01T16:30:42.539Z,44.78
2023-01-01T16:33:24.972Z,44.35
2023-01-01T16:35:57.908Z,44.65
2023-01-01T16:38:28.776Z,44.33
2023-01-01T16:40:59.737Z,43.85
2023-01-01T16:43:40.409Z,44.84
2023-01-01T16:46:18.463Z,43.68
2023-01-01T16:48:54.635Z,43.07
2023-01-01T16:51:32.320Z,43.15
2023-01-01T16:54:05.750Z,43.41
2023-01-01T16:56:41.851Z,43.45
2023-01-01T16:59:17.851Z,42.86
2023-01-01T17:01:50.732Z,42.68
2023-01-01T17:04:21.195Z,42.34
2023-01-01T17:06:59.649Z,42.55
2023-01-01T17:09:30.597Z,42.29
2023-01-01T17:12:09.051Z,42.08
2023-01-01T17:14:42.363Z,41.68
2023-01-01T17:17:18.556Z,41.89
2023-01-01T17:19:54.839Z,41.24
2023-01-01T17:22:27.926Z,41.65
2023-01-01T17:25:01.246Z,42.59
2023-01-01T17:27:31.957Z,41.88
2023-01-01T17:30:06.519Z,41.46
2023-01-01T17:32:38.501Z,42.02
2023-01-01T17:35:19.037Z,42.46
2023-01-01T17:37:49.135Z,43.47
2023-01-01T17:40:24.218Z,43.49
2023-01-01T17:42:57.136Z,41.76
2023-01-01T17:45:34.575Z,41.30
2023-01-01T17:48:09.779Z,40.37
2023-01-01T17:50:45.358Z,40.33
2023-01-01T17:53:26.565Z,39.60
2023-01-01T17:55:57.336Z,39.15
2023-01-01T17:58:35.114Z,39.61
2023-01-01T18:01:15.552Z,39.80
2023-01-01T18:03:50.236Z,39.47
2023-01-01T18:06:20.883Z,40.09
2023-01-01T18:09:04.164Z,40.11
2023-01-01T18:11:40.859Z,40.05
2023-01-01T18:14:22.852Z,40.13
2023-01-01T18:16:57.752Z,39.73
2023-01-01T18:19:40.172Z,40.11
2023-01-01T18:22:18.735Z,39.79
2023-01-01T18:24:51.572Z,39.77
2023-01-01T18:27:27.444Z,39.68
2023-01-01T18:30:11.456Z,39.88
2023-01-01T18:32:44.648Z,38.99
2023-01-01T18:35:17.844Z,38.77
2023-01-01T18:37:53.771Z,38.83
2023-01-01T18:40:24.763Z,38.72
2023-01-01T18:43:21.057Z,39.10
2023-01-01T18:45:51.132Z,39.41
2023-01-01T18:48:23.916Z,38.92
2023-01-01T18:50:56.935Z,38.64
2023-01-01T18:53:28.450Z,38.96
2023-01-01T18:56:16.200Z,38.88
2023-01-01T18:58:57.102Z,38.44
2023-01-01T19:01:37.191Z,38.05
2023-01-01T19:04:14.054Z,37.72
2023-01-01T19:06:53.846Z,38.17
2023-01-01T19:09:30.664Z,38.23
2023-01-01T19:12:13.185Z,38.46
2023-01-01T19:14:43.266Z,38.23
2023-01-01T19:17:23.470Z,37.95
2023-01-01T19:19:54.550Z,37.96
2023-01-01T19:22:42.561Z,38.31
2023-01-01T19:25:37.083Z,38.37
2023-01-01T19:28:21.424Z,38.14
2023-01-01T19:30:52.033Z,38.19
2023-01-01T19:33:31.105Z,38.53
2023-01-01T19:36:01.295Z,37.82
2023-01-01T19:38:38.543Z,36.92
2023-01-01T19:41:12.245Z,37.33
2023-01-01T19:43:51.323Z,37.44
2023-01-01T19:46:21.438Z,37.64
2023-01-01T19:48:54.148Z,37.49
2023-01-01T19:51:35.155Z,37.09
2023-01-01T19:54:10.421Z,36.87
2023-01-01T20:00:00.776Z,37.09
2023-01-01T20:02:47.920Z,37.34
2023-01-01T20:05:34.932Z,37.32
2023-01-01T20:08:07.709Z,36.96
2023-01-01T20:10:50.421Z,36.94
2023-01-01T20:13:29.236Z,36.65
2023-01-01T20:16:00.826Z,36.66
2023-01-01T20:18:31.869Z,36.18
2023-01-01T20:21:26.679Z,36.15
2023-01-01T20:24:05.295Z,35.79
2023-01-01T20:26:38.987Z,35.83
2023-01-01T20:29:25.427Z,36.09
2023-01-01T20:31:56.622Z,36.46
2023-01-01T20:34:29.091Z,36.46
2023-01-01T20:37:27.077Z,36.12
2023-01-01T20:39:59.122Z,35.14
2023-01-01T20:42:29.534Z,35.08
2023-01-01T20:44:59.759Z,34.98
2023-01-01T20:47:33.112Z,35.42
2023-01-01T20:50:04.890Z,35.66
2023-01-01T20:52:37.448Z,35.59
2023-01-01T20:55:09.486Z,35.44
2023-01-01T20:57:40.026Z,35.57
2023-01-01T21:00:36.352Z,35.81
2023-01-01T21:03:15.416Z,35.54
2023-01-01T21:05:45.497Z,35.23
2023-01-01T21:08:18.692Z,35.14
2023-01-01T21:10:51.865Z,35.12
2023-01-01T21:13:28.438Z,35.07
2023-01-01T21:16:08.312Z,35.07
2023-01-01T21:18:44.202Z,35.24
2023-01-01T21:21:27.259Z,35.36
2023-01-01T21:24:40.783Z,35.48
2023-01-01T21:27:13.875Z,35.40
2023-01-01T21:29:57.509Z,35.33
2023-01-01T21:32:50.833Z,35.50
2023-01-01T21:35:30.362Z,35.64
2023-01-01T21:38:16.361Z,35.72
2023-01-01T21:41:14.290Z,35.77
2023-01-01T21:43:52.877Z,35.72
2023-01-01T21:46:40.685Z,35.64
2023-01-01T21:49:36.462Z,35.47
2023-01-01T21:52:26.582Z,34.87
2023-01-01T21:54:58.936Z,34.58
2023-01-01T21:57:33.238Z,34.38
2023-01-01T22:00:18.564Z,34.48
2023-01-01T22:02:54.971Z,34.04
2023-01-01T22:05:33.337Z,34.06
2023-01-01T22:08:26.163Z,33.95
2023-01-01T22:11:08.667Z,33.65
2023-01-01T22:13:42.200Z,33.18
2023-01-01T22:16:20.000Z,33.02
2023-01-01T22:18:55.881Z,32.67
2023-01-01T22:21:28.639Z,32.60
2023-01-01T22:24:03.832Z,32.34
2023-01-01T22:26:37.363Z,32.28
2023-01-01T22:29:25.743Z,32.18
2023-01-01T22:32:18.692Z,32.04
2023-01-01T22:34:54.140Z,31.92
2023-01-01T22:37:56.001Z,32.03
2023-01-01T22:41:11.745Z,31.96
2023-01-01T22:43:48.266Z,31.99
2023-01-01T22:46:36.501Z,31.98
2023-01-01T22:49:17.724Z,31.98
2023-01-01T22:51:48.909Z,32.26
2023-01-01T22:54:19.811Z,32.20
2023-01-01T22:57:12.152Z,32.06
2023-01-01T22:59:42.768Z,32.07
2023-01-01T23:02:15.548Z,31.93
2023-01-01T23:04:53.285Z,32.00
2023-01-01T23:07:27.899Z,31.95
2023-01-01T23:10:02.363Z,31.68
2023-01-01T23:12:39.054Z,31.89
2023-01-01T23:15:29.288Z,31.85
2023-01-01T23:18:11.134Z,31.93
2023-01-01T23:20:49.919Z,31.94
2023-01-01T23:23:20.551Z,31.73
2023-01-01T23:25:57.837Z,31.61
2023-01-01T23:28:38.240Z,31.58
2023-01-01T23:31:32.557Z,31.44
2023-01-01T23:34:03.388Z,31.46
2023-01-01T23:36:43.487Z,31.48
2023-01-01T23:39:23.487Z,31.28
2023-01-01T23:41:59.651Z,31.20
2023-01-01T23:44:42.542Z,31.20
2023-01-01T23:47:22.147Z,31.18
2023-01-01T23:49:54.363Z,30.94
2023-01-01T23:52:28.036Z,30.77
2023-01-01T23:55:07.728Z,30.90
2023-01-01T23:57:40.499Z,30.78
